Time;durP1;ratioP1;P1;durP2;ratioP2;P2;SDS_P1;SDS_P2;PMS_P1;PMS_P2;Temp;Humidity;BMP_temperature;BMP_pressure;BME280_temperature;BME280_humidity;BME280_pressure;Samples;Min_cycle;Max_cycle;Signal;HPM_P1;HPM_P2
2022/06/24 00:01:22;;;;;;;6.00;3.58;;;;;;;19.94;52.45;100242.19;6017986;28;20041;-67
2022/06/24 00:04:25;;;;;;;5.05;3.72;;;;;;;19.87;52.84;100236.00;6022663;28;20125;-67
2022/06/24 00:07:21;;;;;;;6.65;3.33;;;;;;;19.78;52.99;100248.09;6028911;28;20116;-66
2022/06/24 00:10:18;;;;;;;6.05;3.58;;;;;;;19.75;53.13;100243.13;6020302;28;20030;-67
2022/06/24 00:13:14;;;;;;;5.25;3.80;;;;;;;19.82;52.70;100233.13;6030459;28;20034;-67
2022/06/24 00:16:09;;;;;;;4.37;3.27;;;;;;;19.72;52.81;100231.97;6028323;28;20042;-66
2022/06/24 00:19:09;;;;;;;6.17;3.60;;;;;;;19.68;53.02;100236.94;6025248;28;20070;-67
2022/06/24 00:22:08;;;;;;;4.35;3.00;;;;;;;19.74;53.07;100236.09;6011828;28;20776;-67
2022/06/24 00:25:10;;;;;;;6.07;3.00;;;;;;;19.78;52.95;100231.94;6024519;28;20399;-67
2022/06/24 00:28:10;;;;;;;6.13;3.08;;;;;;;19.77;53.23;100226.75;6030555;28;20034;-67
2022/06/24 00:31:06;;;;;;;;;;;;;;;19.64;53.98;100225.00;6011604;28;20102;-67
2022/06/24 00:34:21;;;;;;;5.90;2.77;;;;;;;19.60;53.20;100221.06;6026374;28;20447;-66
2022/06/24 00:37:24;;;;;;;6.78;3.00;;;;;;;19.61;53.55;100209.28;6029709;28;20494;-66
2022/06/24 00:40:20;;;;;;;4.45;2.92;;;;;;;19.46;53.89;100212.25;6022909;28;20478;-67
2022/06/24 00:43:38;;;;;;;5.40;3.08;;;;;;;19.51;53.62;100211.63;6030170;28;20045;-66
2022/06/24 00:46:37;;;;;;;5.93;3.20;;;;;;;19.37;53.61;100201.94;6026725;28;20093;-66
2022/06/24 00:49:32;;;;;;;6.13;3.28;;;;;;;19.32;53.99;100199.09;6032893;28;20042;-66
2022/06/24 00:52:28;;;;;;;4.83;2.63;;;;;;;19.39;54.17;100207.97;6020909;28;20084;-67
2022/06/24 00:55:26;;;;;;;4.50;3.03;;;;;;;19.28;54.03;100208.59;6021191;28;20265;-67
2022/06/24 00:58:21;;;;;;;6.30;3.20;;;;;;;19.17;54.26;100207.41;6020304;28;20285;-66
2022/06/24 01:01:16;;;;;;;4.33;3.37;;;;;;;19.28;53.82;100193.31;6019149;28;20540;-67
2022/06/24 01:04:12;;;;;;;5.72;2.95;;;;;;;19.25;53.53;100184.81;6026502;28;20109;-66
2022/06/24 01:07:07;;;;;;;6.28;3.40;;;;;;;19.28;53.54;100182.53;6025288;28;20039;-66
2022/06/24 01:10:03;;;;;;;5.50;2.80;;;;;;;19.23;53.72;100181.53;6027330;28;20044;-66
2022/06/24 01:12:59;;;;;;;7.47;3.60;;;;;;;19.16;53.95;100183.44;6021173;28;20033;-66
2022/06/24 01:15:54;;;;;;;8.02;2.95;;;;;;;19.19;54.12;100180.31;6029389;28;20034;-66
2022/06/24 01:19:01;;;;;;;5.32;3.08;;;;;;;19.15;54.08;100163.81;6028743;28;20038;-66
2022/06/24 01:21:56;;;;;;;6.65;3.00;;;;;;;19.13;54.16;100168.56;6026438;28;20042;-66
2022/06/24 01:24:52;;;;;;;4.53;3.20;;;;;;;19.13;54.27;100170.44;6017301;28;20049;-67
2022/06/24 01:27:48;;;;;;;5.18;3.20;;;;;;;19.11;54.57;100161.75;6024383;28;20278;-66
2022/06/24 01:30:43;;;;;;;7.40;3.40;;;;;;;19.29;54.13;100160.00;6022679;28;20454;-67
2022/06/24 01:33:38;;;;;;;4.53;3.23;;;;;;;19.12;54.42;100152.66;6024001;28;20041;-66
2022/06/24 01:36:34;;;;;;;4.43;3.10;;;;;;;19.20;54.55;100163.97;6028812;28;20053;-68
2022/06/24 01:39:29;;;;;;;5.40;3.45;;;;;;;19.11;54.89;100156.38;6018430;28;20038;-67
2022/06/24 01:42:25;;;;;;;4.95;3.45;;;;;;;19.07;54.96;100152.47;6024997;28;20177;-67
2022/06/24 01:45:20;;;;;;;4.97;3.37;;;;;;;19.07;55.28;100141.72;6017266;28;20470;-67
2022/06/24 01:48:15;;;;;;;4.43;3.10;;;;;;;19.12;55.06;100144.59;6027635;28;20072;-66
2022/06/24 01:51:12;;;;;;;5.20;3.50;;;;;;;19.32;54.38;100139.94;6017971;28;20313;-66
2022/06/24 01:54:07;;;;;;;6.72;3.20;;;;;;;19.22;54.20;100134.16;6036275;28;20121;-66
2022/06/24 01:57:03;;;;;;;5.17;3.33;;;;;;;19.34;53.69;100127.06;6027922;28;20034;-66
2022/06/24 01:59:59;;;;;;;10.57;3.55;;;;;;;19.32;53.82;100118.41;6027328;28;20030;-66
2022/06/24 02:02:55;;;;;;;6.40;3.50;;;;;;;19.42;53.77;100126.84;6019584;28;20441;-66
2022/06/24 02:05:51;;;;;;;6.33;3.77;;;;;;;19.32;53.80;100121.91;6025571;28;20038;-66
2022/06/24 02:08:46;;;;;;;5.43;3.70;;;;;;;19.26;53.97;100127.34;6026850;28;20040;-66
2022/06/24 02:14:56;;;;;;;5.95;3.70;;;;;;;19.11;54.58;100116.03;6024434;28;20077;-67
2022/06/24 02:17:51;;;;;;;6.20;3.30;;;;;;;19.02;54.91;100113.59;6013164;28;20371;-66
2022/06/24 02:20:46;;;;;;;5.47;3.13;;;;;;;19.13;54.68;100122.88;6026998;28;20274;-66
2022/06/24 02:23:43;;;;;;;6.25;3.38;;;;;;;18.98;55.14;100098.97;6016027;28;20417;-66
2022/06/24 02:26:42;;;;;;;5.22;3.10;;;;;;;18.99;55.24;100107.84;6016321;28;20371;-67
2022/06/24 02:29:37;;;;;;;7.53;3.70;;;;;;;18.90;55.18;100099.22;6018834;28;20073;-67
2022/06/24 02:32:32;;;;;;;5.57;3.87;;;;;;;18.89;55.40;100097.56;6013326;28;20068;-66
2022/06/24 02:35:28;;;;;;;6.37;4.13;;;;;;;18.89;55.11;100097.56;6022322;28;20046;-66
2022/06/24 02:38:23;;;;;;;5.40;3.57;;;;;;;18.88;55.24;100093.25;6026682;28;20015;-66
2022/06/24 02:41:18;;;;;;;8.73;3.92;;;;;;;18.93;55.38;100097.97;6025942;28;20146;-66
2022/06/24 02:44:14;;;;;;;5.87;3.50;;;;;;;18.95;55.16;100079.75;6015998;28;20041;-66
2022/06/24 02:47:09;;;;;;;4.73;3.40;;;;;;;18.89;55.42;100088.66;6013879;28;20467;-67
2022/06/24 02:50:05;;;;;;;5.60;3.70;;;;;;;18.94;55.47;100086.19;6024288;28;20050;-66
2022/06/24 02:53:00;;;;;;;5.72;3.80;;;;;;;18.95;55.46;100085.13;6018174;28;20360;-67
2022/06/24 02:56:00;;;;;;;6.33;3.73;;;;;;;18.96;55.45;100074.19;6027261;28;20180;-67
2022/06/24 02:58:55;;;;;;;5.95;3.42;;;;;;;18.89;55.42;100078.75;6019974;28;20469;-66
2022/06/24 03:01:51;;;;;;;9.90;3.67;;;;;;;18.94;55.39;100084.31;6025451;28;20044;-66
2022/06/24 03:04:46;;;;;;;7.68;3.45;;;;;;;18.89;55.66;100076.06;6024717;28;20046;-66
2022/06/24 03:07:41;;;;;;;6.87;3.73;;;;;;;18.95;55.68;100075.22;6022234;28;20771;-66
2022/06/24 03:10:37;;;;;;;5.00;3.20;;;;;;;18.89;55.69;100070.69;6022897;28;20034;-66
2022/06/24 03:13:32;;;;;;;5.30;3.45;;;;;;;18.97;55.40;100067.75;6026323;28;20296;-66
2022/06/24 03:16:28;;;;;;;7.57;3.20;;;;;;;18.96;55.63;100067.97;6024159;28;20393;-67
2022/06/24 03:19:23;;;;;;;5.87;3.60;;;;;;;19.06;54.79;100072.88;6026860;28;20031;-66
2022/06/24 03:22:18;;;;;;;5.33;3.53;;;;;;;19.22;54.08;100069.66;6021022;28;20045;-66
2022/06/24 03:25:13;;;;;;;6.30;4.07;;;;;;;19.16;54.01;100065.97;6023723;28;20041;-66
2022/06/24 03:28:09;;;;;;;6.83;3.50;;;;;;;19.32;53.54;100061.94;6026077;28;20100;-67
2022/06/24 03:31:04;;;;;;;5.72;3.67;;;;;;;19.39;53.30;100060.88;6016948;28;20066;-67
2022/06/24 03:33:59;;;;;;;5.57;3.77;;;;;;;19.38;53.50;100050.31;6009158;28;20110;-67
2022/06/24 03:36:55;;;;;;;5.20;3.47;;;;;;;19.42;53.30;100048.84;6018143;28;20031;-66
2022/06/24 03:39:50;;;;;;;5.30;3.35;;;;;;;19.37;53.51;100045.97;6023317;28;20045;-67
2022/06/24 03:42:45;;;;;;;4.60;3.37;;;;;;;19.42;53.45;100054.22;6024578;28;20486;-66
2022/06/24 03:45:41;;;;;;;9.23;3.67;;;;;;;19.44;53.38;100052.97;6016571;28;20045;-67
2022/06/24 03:48:36;;;;;;;4.97;3.57;;;;;;;19.56;53.14;100045.00;6023362;28;20042;-66
2022/06/24 03:51:31;;;;;;;6.47;3.60;;;;;;;19.59;52.94;100040.00;6024584;28;20049;-66
2022/06/24 03:54:27;;;;;;;6.73;3.87;;;;;;;19.59;52.88;100033.81;6022862;28;20053;-67
2022/06/24 03:57:22;;;;;;;6.23;3.90;;;;;;;19.64;52.92;100044.72;6025302;28;20022;-67
2022/06/24 04:00:17;;;;;;;5.00;3.87;;;;;;;19.60;52.77;100035.44;6023708;28;20041;-66
2022/06/24 04:03:12;;;;;;;5.10;3.60;;;;;;;19.65;53.02;100026.72;6025105;28;20281;-66
2022/06/24 04:06:08;;;;;;;5.47;3.25;;;;;;;19.70;52.95;100033.09;6020942;28;20415;-67
2022/06/24 04:09:03;;;;;;;4.73;3.63;;;;;;;19.66;52.85;100029.19;6024374;28;20097;-66
2022/06/24 04:11:58;;;;;;;4.60;3.60;;;;;;;19.71;53.05;100025.81;6042474;28;20125;-66
2022/06/24 04:18:08;;;;;;;5.63;3.75;;;;;;;19.87;52.66;100015.31;6025976;28;20022;-65
2022/06/24 04:21:14;;;;;;;4.77;3.37;;;;;;;19.90;52.31;100009.47;6023623;28;20363;-66
2022/06/24 04:24:10;;;;;;;5.93;3.60;;;;;;;19.95;52.71;100009.63;6021276;28;20266;-66
2022/06/24 04:27:05;;;;;;;8.43;4.07;;;;;;;20.30;51.63;100009.06;6027598;28;20045;-66
2022/06/24 04:30:04;;;;;;;5.40;3.85;;;;;;;20.37;51.47;100012.47;6025263;28;20038;-66
2022/06/24 04:32:59;;;;;;;6.82;3.80;;;;;;;20.42;51.56;100004.53;6019211;28;20027;-66
2022/06/24 04:35:54;;;;;;;7.38;3.85;;;;;;;20.87;50.06;100010.34;6023778;28;20113;-66
2022/06/24 04:38:50;;;;;;;5.97;3.90;;;;;;;21.04;50.02;100014.84;6024869;28;20030;-66
2022/06/24 04:41:45;;;;;;;9.17;3.50;;;;;;;21.08;49.96;100013.38;6024756;28;20034;-66
2022/06/24 04:44:40;;;;;;;6.80;3.90;;;;;;;20.86;50.60;100009.53;6019393;28;20110;-66
2022/06/24 04:47:36;;;;;;;5.40;3.90;;;;;;;21.16;49.79;100010.34;6023191;28;20026;-66
2022/06/24 04:50:31;;;;;;;6.85;4.03;;;;;;;20.94;50.53;100013.75;6028460;28;20284;-67
2022/06/24 04:53:27;;;;;;;6.70;3.80;;;;;;;21.04;50.56;100020.22;6015167;28;20042;-66
2022/06/24 04:56:22;;;;;;;4.83;3.93;;;;;;;20.71;51.66;100011.78;6018216;28;20041;-66
2022/06/24 04:59:17;;;;;;;6.67;3.83;;;;;;;20.92;51.69;100024.78;6017165;28;20501;-66
2022/06/24 05:02:13;;;;;;;4.63;3.73;;;;;;;20.79;52.08;100024.94;6017603;28;20085;-66
2022/06/24 05:05:09;;;;;;;7.18;4.10;;;;;;;21.12;51.64;100033.41;6027445;28;20042;-66
2022/06/24 05:08:05;;;;;;;5.00;4.13;;;;;;;21.39;50.94;100030.31;6029407;28;20042;-66
2022/06/24 05:11:00;;;;;;;5.65;3.70;;;;;;;21.90;49.91;100028.56;6025893;28;20038;-66
2022/06/24 05:13:55;;;;;;;8.40;4.40;;;;;;;21.85;50.09;100022.22;6029444;28;20027;-66
2022/06/24 05:16:51;;;;;;;4.90;4.03;;;;;;;21.48;51.32;100023.50;6029291;28;20038;-66
2022/06/24 05:19:46;;;;;;;8.37;3.77;;;;;;;21.47;51.08;100017.25;6019665;28;20030;-66
2022/06/24 05:22:41;;;;;;;5.53;3.73;;;;;;;21.68;50.80;100018.59;6028153;28;20106;-66
2022/06/24 05:25:37;;;;;;;5.37;3.93;;;;;;;21.45;51.40;100022.09;6029007;28;20061;-67
2022/06/24 05:28:35;;;;;;;6.22;4.10;;;;;;;21.68;50.85;100029.38;6028154;28;20360;-66
2022/06/24 05:31:30;;;;;;;5.65;4.10;;;;;;;21.98;49.83;100023.88;6026598;28;20038;-66
2022/06/24 05:34:26;;;;;;;4.33;3.67;;;;;;;22.15;49.72;100036.38;6027813;28;20033;-66
2022/06/24 05:37:21;;;;;;;5.32;3.70;;;;;;;22.00;49.92;100033.38;6028796;28;20085;-65
2022/06/24 05:40:16;;;;;;;7.40;4.20;;;;;;;22.14;49.25;100034.75;6016531;28;20038;-66
2022/06/24 05:43:12;;;;;;;8.83;4.40;;;;;;;22.39;48.82;100040.69;6027900;28;20282;-66
2022/06/24 05:46:07;;;;;;;5.80;3.70;;;;;;;22.54;48.42;100037.47;6028658;28;20046;-66
2022/06/24 05:49:03;;;;;;;6.53;4.10;;;;;;;22.42;48.37;100042.91;6028408;28;20520;-66
2022/06/24 05:51:58;;;;;;;5.13;4.17;;;;;;;22.52;48.03;100031.50;6027738;28;20041;-66
2022/06/24 05:55:02;;;;;;;9.53;4.03;;;;;;;22.74;47.42;100037.91;6027094;28;20030;-66
2022/06/24 05:57:57;;;;;;;6.22;3.95;;;;;;;22.85;47.82;100037.03;6026655;28;20058;-66
2022/06/24 06:00:54;;;;;;;8.63;3.93;;;;;;;23.20;46.88;100026.00;6027134;28;20038;-67
2022/06/24 06:03:50;;;;;;;6.45;4.10;;;;;;;22.87;47.74;100036.78;6020574;28;20379;-66
2022/06/24 06:06:45;;;;;;;5.03;3.70;;;;;;;23.18;48.13;100030.84;6024994;28;20089;-65
2022/06/24 06:09:41;;;;;;;5.88;4.03;;;;;;;23.87;45.47;100015.16;6025128;28;20042;-65
2022/06/24 06:12:36;;;;;;;6.25;4.47;;;;;;;23.14;47.40;100024.28;6027013;28;20554;-66
2022/06/24 06:15:32;;;;;;;5.13;3.97;;;;;;;23.00;48.08;100031.06;6027872;28;20049;-66
2022/06/24 06:18:27;;;;;;;6.88;3.97;;;;;;;22.98;48.05;100025.91;6027404;28;20038;-66
2022/06/24 06:21:22;;;;;;;5.63;4.10;;;;;;;23.11;47.87;100030.19;6027117;28;20164;-66
2022/06/24 06:24:18;;;;;;;6.32;3.90;;;;;;;23.66;47.07;100025.72;6027436;28;20022;-66
2022/06/24 06:27:13;;;;;;;6.27;3.77;;;;;;;23.92;46.33;100026.06;6027453;28;20097;-66
2022/06/24 06:30:09;;;;;;;6.27;3.70;;;;;;;24.80;44.29;100018.53;6026506;28;20058;-66
2022/06/24 06:33:04;;;;;;;6.88;4.55;;;;;;;24.02;46.09;100016.19;6026478;28;20375;-66
2022/06/24 06:36:10;;;;;;;7.90;4.30;;;;;;;24.67;45.13;100023.50;6025479;28;20486;-66
2022/06/24 06:39:06;;;;;;;5.72;4.22;;;;;;;25.09;44.16;100010.94;6027336;28;20030;-66
2022/06/24 06:42:01;;;;;;;9.60;4.37;;;;;;;25.21;44.00;100018.91;6026078;28;20056;-66
2022/06/24 06:44:56;;;;;;;9.20;4.25;;;;;;;25.06;44.73;100022.28;6027299;28;20030;-66
2022/06/24 06:47:52;;;;;;;8.10;3.90;;;;;;;25.33;43.82;100016.81;6027125;28;20042;-66
2022/06/24 06:50:47;;;;;;;7.23;4.33;;;;;;;25.89;42.92;100015.34;6026465;28;20116;-66
2022/06/24 06:53:43;;;;;;;6.00;4.68;;;;;;;25.68;42.98;100011.72;6023522;28;20034;-66
2022/06/24 06:56:39;;;;;;;8.40;4.83;;;;;;;26.26;42.20;100013.38;6021481;28;20049;-66
2022/06/24 06:59:34;;;;;;;8.80;4.50;;;;;;;27.00;41.48;100010.34;6027174;28;20274;-66
2022/06/24 07:02:29;;;;;;;9.17;4.27;;;;;;;26.01;42.59;100019.50;6026381;28;20374;-66
2022/06/24 07:05:24;;;;;;;8.33;4.23;;;;;;;26.27;42.82;100015.03;6026895;28;20401;-66
2022/06/24 07:08:20;;;;;;;7.37;4.03;;;;;;;27.47;40.29;100010.13;6026693;28;20034;-66
2022/06/24 07:11:15;;;;;;;8.57;5.18;;;;;;;25.94;42.91;100002.63;6013228;28;20038;-67
2022/06/24 07:14:11;;;;;;;8.00;4.87;;;;;;;26.40;42.13;100000.94;6017597;28;20037;-66
2022/06/24 07:17:06;;;;;;;6.30;4.60;;;;;;;26.60;41.92;99997.47;6026555;28;20113;-66
2022/06/24 07:20:03;;;;;;;11.53;4.70;;;;;;;27.01;41.14;99996.47;6025223;28;20038;-67
2022/06/24 07:22:58;;;;;;;6.95;4.25;;;;;;;28.27;38.94;99982.66;6025542;28;20030;-66
2022/06/24 07:25:57;;;;;;;6.30;4.53;;;;;;;28.03;39.98;99987.13;6026149;28;20049;-66
2022/06/24 07:28:52;;;;;;;10.13;4.22;;;;;;;27.68;40.47;99981.75;6026187;28;20046;-66
2022/06/24 07:31:48;;;;;;;7.53;4.73;;;;;;;27.35;40.64;99979.56;6022820;28;20035;-66
2022/06/24 07:34:43;;;;;;;7.40;4.87;;;;;;;26.54;42.84;99993.09;6015357;28;20030;-66
2022/06/24 07:37:38;;;;;;;7.57;4.33;;;;;;;27.42;42.22;99991.06;6022362;28;20557;-66
2022/06/24 07:40:34;;;;;;;5.85;4.40;;;;;;;27.37;40.91;99982.84;6021711;28;20069;-66
2022/06/24 07:43:29;;;;;;;8.93;4.23;;;;;;;27.44;40.96;99978.78;6022816;28;20034;-66
2022/06/24 07:46:26;;;;;;;6.03;4.00;;;;;;;27.83;41.04;99992.59;6026166;28;20041;-66
2022/06/24 07:49:22;;;;;;;5.50;4.10;;;;;;;28.30;40.42;99982.09;6024585;28;20037;-67
2022/06/24 07:52:17;;;;;;;6.88;4.82;;;;;;;28.44;39.70;99982.28;6025371;28;20034;-66
2022/06/24 07:58:26;;;;;;;5.38;4.07;;;;;;;28.45;40.57;99962.09;6026024;28;20038;-67
2022/06/24 08:01:22;;;;;;;6.50;4.60;;;;;;;27.10;43.32;99978.50;6024682;28;20038;-66
2022/06/24 08:04:17;;;;;;;5.73;4.40;;;;;;;27.16;43.35;99982.84;6013292;28;20495;-66
2022/06/24 08:07:12;;;;;;;6.75;4.18;;;;;;;27.57;42.93;99977.41;6026013;28;20269;-66
2022/06/24 08:10:08;;;;;;;6.13;4.60;;;;;;;27.67;43.00;99966.47;6013091;28;20045;-66
2022/06/24 08:13:03;;;;;;;5.70;4.00;;;;;;;27.21;44.25;99973.84;6025157;28;20031;-66
2022/06/24 08:15:59;;;;;;;10.53;4.47;;;;;;;27.09;44.48;99976.88;6025495;28;20272;-66
2022/06/24 08:18:55;;;;;;;7.82;4.00;;;;;;;27.47;43.24;99969.25;6024483;28;20288;-66
2022/06/24 08:21:50;;;;;;;7.00;3.80;;;;;;;27.78;42.29;99965.34;6027489;28;20030;-66
2022/06/24 08:24:46;;;;;;;5.47;3.87;;;;;;;27.45;42.92;99971.44;6029833;28;20050;-66
2022/06/24 08:27:41;;;;;;;6.88;3.63;;;;;;;27.88;41.82;99968.06;6029205;28;20128;-66
2022/06/24 08:30:36;;;;;;;7.60;3.57;;;;;;;27.75;42.14;99968.63;6018094;28;20042;-66
2022/06/24 08:33:32;;;;;;;5.00;3.73;;;;;;;27.67;41.92;99966.47;6021033;28;20030;-66
2022/06/24 08:36:27;;;;;;;5.93;3.80;;;;;;;27.56;41.99;99962.94;6030262;28;20488;-66
2022/06/24 08:39:22;;;;;;;5.30;3.57;;;;;;;27.81;41.11;99961.25;6019637;28;20026;-66
2022/06/24 08:42:18;;;;;;;5.07;3.93;;;;;;;28.20;39.35;99954.88;6028724;28;20030;-66
2022/06/24 08:45:14;;;;;;;5.32;3.63;;;;;;;27.69;41.56;99948.75;6028165;28;20053;-66
2022/06/24 08:48:10;;;;;;;5.47;4.05;;;;;;;27.58;41.63;99940.91;6029686;28;20485;-65
2022/06/24 08:51:06;;;;;;;7.38;4.07;;;;;;;28.02;40.77;99947.28;6023342;28;20046;-66
2022/06/24 08:54:02;;;;;;;4.65;3.63;;;;;;;27.99;41.59;99942.41;6028863;28;20385;-66
2022/06/24 08:56:58;;;;;;;5.70;3.80;;;;;;;28.34;40.45;99939.53;6029452;28;20030;-66
2022/06/24 08:59:53;;;;;;;6.22;3.92;;;;;;;28.42;40.02;99937.28;6028939;28;20057;-66
2022/06/24 09:02:49;;;;;;;6.22;3.72;;;;;;;28.65;40.27;99934.69;6015860;28;20486;-66
2022/06/24 09:05:45;;;;;;;7.63;3.95;;;;;;;29.03;38.90;99938.50;6019607;28;20034;-66
2022/06/24 09:08:46;;;;;;;7.07;4.20;;;;;;;29.46;38.56;99939.50;6028405;28;20034;-66
2022/06/24 09:11:42;;;;;;;6.18;3.72;;;;;;;29.95;36.48;99922.84;6028285;28;20085;-66
2022/06/24 09:14:45;;;;;;;8.40;3.80;;;;;;;29.32;39.11;99939.38;6028878;28;20061;-66
2022/06/24 09:17:41;;;;;;;5.55;3.35;;;;;;;28.31;39.66;99931.09;6028728;28;20655;-66
2022/06/24 09:20:37;;;;;;;7.72;4.13;;;;;;;27.26;42.53;99940.38;6028540;28;20050;-67
2022/06/24 09:23:32;;;;;;;5.85;4.30;;;;;;;27.58;41.90;99930.81;6029049;28;20085;-66
2022/06/24 09:26:36;;;;;;;7.77;3.73;;;;;;;28.13;41.44;99948.88;6029230;28;20508;-66
2022/06/24 09:29:31;;;;;;;5.88;3.80;;;;;;;28.49;39.86;99935.88;6020509;28;20308;-67
2022/06/24 09:32:27;;;;;;;9.80;3.17;;;;;;;28.56;39.68;99941.03;6026988;28;20421;-66
2022/06/24 09:35:24;;;;;;;4.93;3.22;;;;;;;28.36;40.34;99933.78;6028809;28;20088;-66
2022/06/24 09:38:19;;;;;;;7.47;3.60;;;;;;;27.88;41.55;99948.16;6028413;28;20546;-67
2022/06/24 09:41:14;;;;;;;4.90;3.70;;;;;;;27.13;43.33;99956.16;6027497;28;20049;-67
2022/06/24 09:44:10;;;;;;;5.87;3.47;;;;;;;26.72;44.53;99961.81;6027522;28;20026;-67
2022/06/24 09:47:06;;;;;;;6.70;3.58;;;;;;;26.58;45.08;99969.69;6021668;28;20121;-67
2022/06/24 09:50:01;;;;;;;6.55;3.83;;;;;;;26.59;46.05;99968.63;6022828;28;20093;-67
2022/06/24 09:52:56;;;;;;;5.40;3.83;;;;;;;26.18;46.47;99975.84;6025414;28;20027;-67
2022/06/24 09:55:55;;;;;;;6.00;3.88;;;;;;;26.30;46.36;99973.72;6015529;28;20031;-67
2022/06/24 10:02:27;;;;;;;5.63;3.30;;;;;;;26.53;46.58;99972.41;6061245;28;20125;-67
2022/06/24 10:05:25;;;;;;;6.63;3.33;;;;;;;26.51;47.48;99969.97;6055610;28;20041;-67
2022/06/24 10:08:22;;;;;;;6.75;3.42;;;;;;;26.27;50.47;99985.13;6028179;28;20057;-67
2022/06/24 10:11:17;;;;;;;4.55;3.20;;;;;;;26.07;51.62;99978.75;6026855;28;20402;-67
2022/06/24 10:14:13;;;;;;;8.23;3.00;;;;;;;25.68;53.38;99992.69;6027070;28;20033;-67
2022/06/24 10:17:08;;;;;;;6.93;3.20;;;;;;;25.71;53.79;99981.28;6027604;28;20053;-67
2022/06/24 10:20:05;;;;;;;5.40;3.35;;;;;;;25.64;53.99;99988.84;6042598;28;20098;-67
2022/06/24 10:23:00;;;;;;;5.60;3.55;;;;;;;25.80;53.01;99982.41;6026541;28;20054;-67
2022/06/24 10:25:55;;;;;;;8.17;3.17;;;;;;;25.33;54.36;99978.81;6028043;28;20122;-67
2022/06/24 10:29:00;;;;;;;7.13;3.00;;;;;;;25.31;54.09;99989.13;6027575;28;20046;-67
2022/06/24 10:32:00;;;;;;;6.03;2.88;;;;;;;25.35;54.48;99976.69;6027095;28;20637;-67
2022/06/24 10:34:56;;;;;;;8.15;3.17;;;;;;;25.51;54.82;99981.16;6027373;28;20046;-67
2022/06/24 10:37:53;;;;;;;5.07;3.22;;;;;;;25.44;55.36;99980.53;6027139;28;20477;-67
2022/06/24 10:40:49;;;;;;;8.48;2.83;;;;;;;25.29;56.43;99977.72;6042086;28;20385;-67
2022/06/24 10:43:45;;;;;;;7.30;3.20;;;;;;;25.12;57.52;99986.00;6026510;28;20126;-67
2022/06/24 10:46:40;;;;;;;8.38;3.17;;;;;;;24.81;58.85;99979.47;6027537;28;20042;-66
2022/06/24 10:49:54;;;;;;;6.20;3.00;;;;;;;25.04;57.91;99977.50;6024234;28;20038;-67
2022/06/24 10:52:51;;;;;;;6.43;2.85;;;;;;;25.28;57.45;99986.91;6026102;28;20038;-67
2022/06/24 10:55:46;;;;;;;6.40;2.80;;;;;;;25.12;58.16;99971.59;6026968;28;20049;-67
2022/06/24 10:58:41;;;;;;;4.13;2.97;;;;;;;25.18;56.51;99970.56;6026620;28;20042;-67
2022/06/24 11:01:41;;;;;;;7.53;2.97;;;;;;;25.33;56.11;99974.19;6025110;28;20486;-67
2022/06/24 11:04:37;;;;;;;5.85;2.50;;;;;;;25.40;56.47;99974.00;6023945;28;20037;-67
2022/06/24 11:07:32;;;;;;;4.97;2.33;;;;;;;24.97;57.10;99979.63;6041232;28;20113;-67
2022/06/24 11:10:30;;;;;;;4.00;2.00;;;;;;;24.72;57.69;99994.56;6012973;28;20038;-67
2022/06/24 11:13:26;;;;;;;5.47;1.98;;;;;;;24.40;57.62;99980.09;6025967;28;20292;-67
2022/06/24 11:16:21;;;;;;;6.38;1.83;;;;;;;24.77;56.79;99975.59;6026934;28;20034;-67
2022/06/24 11:19:17;;;;;;;3.42;1.50;;;;;;;24.87;56.93;99979.53;6040954;28;20042;-67
2022/06/24 11:22:12;;;;;;;3.72;1.65;;;;;;;24.83;58.01;99971.91;6025692;28;20555;-67
2022/06/24 11:25:08;;;;;;;5.03;1.37;;;;;;;24.71;56.79;99995.63;6026793;28;20046;-67
2022/06/24 11:28:04;;;;;;;3.70;1.10;;;;;;;24.63;58.03;99996.06;6024283;28;20026;-67
2022/06/24 11:31:21;;;;;;;3.45;1.25;;;;;;;24.71;56.16;99992.91;6025835;28;20030;-66
2022/06/24 11:34:17;;;;;;;2.30;1.30;;;;;;;24.61;57.17;100016.38;6023291;28;20481;-67
2022/06/24 11:37:13;;;;;;;4.85;1.10;;;;;;;24.28;55.80;100009.22;6026486;28;20039;-66
2022/06/24 11:40:08;;;;;;;2.93;1.03;;;;;;;24.54;55.50;100013.06;6024874;28;20046;-67
2022/06/24 11:43:11;;;;;;;5.05;1.10;;;;;;;24.39;56.93;100010.16;6025893;28;20393;-67
2022/06/24 11:46:09;;;;;;;4.53;1.50;;;;;;;24.67;56.42;100002.63;6025848;28;20061;-67
2022/06/24 11:49:11;;;;;;;4.15;1.20;;;;;;;24.79;56.65;100006.03;6025009;28;20061;-67
2022/06/24 11:52:06;;;;;;;4.28;1.27;;;;;;;24.64;57.26;99997.72;6022702;28;20054;-67
2022/06/24 11:55:02;;;;;;;3.47;1.47;;;;;;;24.33;58.87;99990.31;6025467;28;20056;-66
2022/06/24 11:57:59;;;;;;;2.87;1.57;;;;;;;23.89;61.44;99988.66;6025608;28;20365;-67
2022/06/24 12:00:55;;;;;;;3.15;1.30;;;;;;;23.83;61.84;99995.88;6024605;28;20285;-67
2022/06/24 12:03:52;;;;;;;3.70;1.42;;;;;;;24.05;61.33;99998.63;6025780;28;20042;-67
2022/06/24 12:06:47;;;;;;;2.75;1.40;;;;;;;23.98;60.59;99993.38;6041207;28;20026;-67
2022/06/24 12:09:43;;;;;;;4.15;1.88;;;;;;;24.12;60.43;99983.00;6024411;28;20085;-67
2022/06/24 12:12:59;;;;;;;4.33;1.63;;;;;;;24.21;60.21;99973.38;6023744;28;20042;-67
2022/06/24 12:15:55;;;;;;;3.33;1.58;;;;;;;24.56;58.66;99972.94;6026114;28;20417;-66
2022/06/24 12:18:50;;;;;;;3.15;1.23;;;;;;;24.62;58.46;99974.66;6017919;28;20045;-67
2022/06/24 12:21:46;;;;;;;4.63;1.20;;;;;;;24.45;57.82;99982.88;6023728;28;20045;-66
2022/06/24 12:24:42;;;;;;;3.10;1.58;;;;;;;24.07;59.17;99974.78;6042194;28;20065;-66
2022/06/24 12:27:39;;;;;;;3.42;1.33;;;;;;;23.93;59.70;99979.75;6025157;28;20084;-66
2022/06/24 12:30:34;;;;;;;4.97;1.38;;;;;;;24.24;58.73;99970.97;6024974;28;20038;-67
2022/06/24 12:33:32;;;;;;;3.17;1.23;;;;;;;23.98;59.27;99973.59;6024259;28;20034;-66
2022/06/24 12:36:41;;;;;;;3.50;1.40;;;;;;;24.22;58.74;99972.28;6025644;28;20623;-67
2022/06/24 12:39:39;;;;;;;2.88;1.50;;;;;;;24.34;58.84;99954.00;6025552;28;20124;-67
2022/06/24 12:42:34;;;;;;;5.10;1.38;;;;;;;24.61;57.32;99948.59;6013257;28;20034;-66
2022/06/24 12:45:34;;;;;;;4.47;1.90;;;;;;;25.19;56.01;99961.34;6025658;28;20040;-67
2022/06/24 12:51:54;;;;;;;2.70;1.10;;;;;;;25.12;54.66;99966.16;6002910;28;20049;-67
2022/06/24 12:54:49;;;;;;;3.80;1.60;;;;;;;25.17;54.44;99966.19;6025175;28;20042;-67
2022/06/24 12:57:45;;;;;;;6.43;1.20;;;;;;;25.30;54.65;99963.06;6025018;28;20519;-67
2022/06/24 13:00:40;;;;;;;3.38;1.30;;;;;;;24.95;56.03;99965.50;6024934;28;20030;-67
2022/06/24 13:03:35;;;;;;;3.73;1.60;;;;;;;25.54;54.12;99972.50;6024840;28;20053;-67
2022/06/24 13:06:30;;;;;;;5.23;2.00;;;;;;;24.97;55.56;99971.47;6025552;28;20448;-67
2022/06/24 13:09:26;;;;;;;3.50;1.70;;;;;;;24.69;56.23;99965.22;6028062;28;20035;-67
2022/06/24 13:12:21;;;;;;;5.00;1.53;;;;;;;24.62;56.06;99969.22;6028440;28;20031;-66
2022/06/24 13:15:17;;;;;;;4.03;1.60;;;;;;;24.66;56.08;99971.16;6028998;28;20478;-67
2022/06/24 13:18:12;;;;;;;3.67;1.30;;;;;;;24.78;56.28;99960.97;6021141;28;20862;-67
2022/06/24 13:21:07;;;;;;;4.37;1.40;;;;;;;25.22;55.42;99963.56;6024485;28;20065;-67
2022/06/24 13:24:03;;;;;;;4.17;1.67;;;;;;;25.37;53.99;99950.91;6026825;28;20026;-66
2022/06/24 13:27:00;;;;;;;6.22;1.40;;;;;;;25.28;54.05;99959.78;6028705;28;20038;-67
2022/06/24 13:29:57;;;;;;;3.70;1.40;;;;;;;26.20;51.79;99946.47;6028850;28;20061;-67
2022/06/24 13:32:52;;;;;;;4.00;1.52;;;;;;;26.22;52.18;99932.63;6028047;28;20034;-67
2022/06/24 13:35:47;;;;;;;4.23;1.40;;;;;;;26.42;51.20;99943.53;6028693;28;20042;-67
2022/06/24 13:38:43;;;;;;;6.33;1.73;;;;;;;26.28;51.31;99931.56;6028483;28;20089;-66
2022/06/24 13:41:38;;;;;;;3.83;1.53;;;;;;;26.62;49.90;99938.16;6028446;28;20489;-66
2022/06/24 13:44:35;;;;;;;5.13;1.60;;;;;;;26.75;49.72;99937.63;6028533;28;20273;-67
2022/06/24 13:47:31;;;;;;;4.60;1.45;;;;;;;26.82;49.68;99935.50;6042722;28;20284;-67
2022/06/24 13:50:26;;;;;;;3.03;1.40;;;;;;;26.49;50.93;99938.69;6025335;28;20030;-67
2022/06/24 13:53:21;;;;;;;5.03;1.70;;;;;;;26.75;50.15;99936.78;6020747;28;20041;-67
2022/06/24 13:56:17;;;;;;;4.40;1.73;;;;;;;26.85;50.15;99937.66;6028741;28;20037;-67
2022/06/24 13:59:14;;;;;;;6.23;1.60;;;;;;;27.32;48.96;99925.63;6027508;28;20437;-67
2022/06/24 14:02:10;;;;;;;2.58;1.58;;;;;;;27.55;48.35;99930.53;6027745;28;20113;-67